createdAt,value
2023-01-11T00:02:36.455Z,0.03
2023-01-11T00:17:27.866Z,0.04
2023-01-11T01:18:27.985Z,0.05
2023-01-11T01:20:52.680Z,0.08
2023-01-11T01:23:03.189Z,0.05
2023-01-11T01:26:02.208Z,0.04
2023-01-11T02:25:32.145Z,0.03
2023-01-11T02:27:51.446Z,0.04
2023-01-11T02:32:50.599Z,0.03
2023-01-11T02:40:07.055Z,0.04
2023-01-11T03:19:41.378Z,0.03
2023-01-11T03:29:49.681Z,0.04
2023-01-11T03:32:17.792Z,0.03
2023-01-11T03:34:31.676Z,0.04
2023-01-11T03:41:54.134Z,0.03
2023-01-11T03:49:14.456Z,0.04
2023-01-11T03:54:21.279Z,0.03
2023-01-11T04:01:18.282Z,0.04
2023-01-11T04:21:18.401Z,0.03
2023-01-11T04:49:00.834Z,0.04
2023-01-11T05:08:45.570Z,0.05
2023-01-11T05:52:25.673Z,0.06
2023-01-11T05:54:47.825Z,0.05
2023-01-11T05:56:57.245Z,0.06
2023-01-11T05:59:55.296Z,0.07
2023-01-11T06:09:25.965Z,0.06
2023-01-11T06:24:59.242Z,0.07
2023-01-11T06:29:41.327Z,0.08
2023-01-11T06:31:41.364Z,0.07
2023-01-11T06:34:29.666Z,0.08
2023-01-11T06:39:23.740Z,0.09
2023-01-11T06:41:29.760Z,0.1
2023-01-11T06:44:24.067Z,0.12
2023-01-11T06:47:04.348Z,0.14
2023-01-11T06:49:30.595Z,0.18
2023-01-11T06:51:42.691Z,0.26
2023-01-11T06:53:40.700Z,0.28
2023-01-11T06:56:27.224Z,0.41
2023-01-11T06:58:59.576Z,0.59
2023-01-11T07:01:17.761Z,0.69
2023-01-11T07:03:21.965Z,0.97
2023-01-11T07:06:14.578Z,1.34
2023-01-11T07:08:53.011Z,1.74
2023-01-11T07:11:16.958Z,3.18
2023-01-11T07:13:27.253Z,3.33
2023-01-11T07:16:25.937Z,5.64
2023-01-11T07:19:10.550Z,6.09
2023-01-11T07:21:41.179Z,6.15
2023-01-11T07:23:57.725Z,7.23
2023-01-11T07:26:00.069Z,7.82
2023-01-11T07:28:51.005Z,10.92
2023-01-11T07:31:27.758Z,13.7
2023-01-11T07:33:50.253Z,15.9
2023-01-11T07:35:58.901Z,15.33
2023-01-11T07:38:55.950Z,17.22
2023-01-11T07:41:39.261Z,19.44
2023-01-11T07:44:07.579Z,18.88
2023-01-11T07:46:22.397Z,16.97
2023-01-11T07:48:22.948Z,19.33
2023-01-11T07:51:13.134Z,31.27
2023-01-11T07:53:46.936Z,33.71
2023-01-11T07:56:07.815Z,35.91
2023-01-11T07:58:14.542Z,38.89
2023-01-11T08:01:09.804Z,50.88
2023-01-11T08:03:50.699Z,62.6
2023-01-11T08:06:17.572Z,64.04
2023-01-11T08:08:30.412Z,64.02
2023-01-11T08:10:29.468Z,71.48
2023-01-11T08:13:16.547Z,74.74
2023-01-11T08:15:49.656Z,75.8
2023-01-11T08:18:08.820Z,62.6
2023-01-11T08:20:14.115Z,94.12
2023-01-11T08:23:07.110Z,76.3
2023-01-11T08:25:46.566Z,96.32
2023-01-11T08:28:11.891Z,106.64
2023-01-11T08:30:23.080Z,112.96
2023-01-11T08:32:20.277Z,111.24
2023-01-11T08:35:05.917Z,94.12
2023-01-11T08:37:37.439Z,132.08
2023-01-11T08:39:54.521Z,110.56
2023-01-11T08:41:57.825Z,109.8
2023-01-11T08:44:49.566Z,112.36
2023-01-11T08:47:27.035Z,99.16
2023-01-11T08:49:50.636Z,82.96
2023-01-11T08:52:00.107Z,82.32
2023-01-11T08:54:57.525Z,68.58
2023-01-11T08:57:41.365Z,85.56
2023-01-11T09:00:11.041Z,122.68
2023-01-11T09:02:26.670Z,108.08
2023-01-11T09:04:28.270Z,102.36
2023-01-11T09:07:18.296Z,125.76
2023-01-11T09:09:54.118Z,167.8
2023-01-11T09:12:15.729Z,121.6
2023-01-11T09:14:23.455Z,97.68
2023-01-11T09:17:19.541Z,94.56
2023-01-11T09:20:01.376Z,117
2023-01-11T09:22:29.361Z,106.32
2023-01-11T09:24:43.087Z,155.56
2023-01-11T09:26:42.750Z,163.8
2023-01-11T09:29:31.039Z,136.44
2023-01-11T09:32:05.098Z,197.8
2023-01-11T09:34:25.048Z,109.88
2023-01-11T09:36:31.062Z,128.56
2023-01-11T09:39:25.438Z,150.72
2023-01-11T09:42:05.606Z,129.8
2023-01-11T09:44:31.583Z,205.9
2023-01-11T09:46:43.313Z,207.9
2023-01-11T09:48:41.172Z,158.68
2023-01-11T09:51:27.386Z,178.8
2023-01-11T09:53:59.747Z,212
2023-01-11T09:56:17.927Z,196.7
2023-01-11T09:58:21.935Z,201.9
2023-01-11T10:01:14.704Z,163.6
2023-01-11T10:03:53.045Z,191.2
2023-01-11T10:06:17.374Z,208.2
2023-01-11T10:18:21.914Z,245.6
2023-01-11T10:18:23.930Z,248.2
2023-01-11T10:19:25.031Z,352.9
2023-01-11T10:21:00.320Z,322.3
2023-01-11T10:23:50.995Z,301.1
2023-01-11T10:26:27.760Z,253
2023-01-11T10:28:50.431Z,237
2023-01-11T10:30:58.819Z,254.4
2023-01-11T10:33:55.957Z,228.8
2023-01-11T10:36:38.792Z,269.7
2023-01-11T10:39:07.085Z,281.3
2023-01-11T10:41:21.605Z,317.6
2023-01-11T10:43:22.230Z,388.8
2023-01-11T10:46:11.233Z,348.1
2023-01-11T10:48:46.073Z,294.5
2023-01-11T10:51:06.977Z,271.7
2023-01-11T10:53:13.708Z,268.4
2023-01-11T10:56:08.795Z,274.9
2023-01-11T10:58:50.025Z,176.8
2023-01-11T11:01:17.049Z,203.5
2023-01-11T11:03:29.732Z,211.6
2023-01-11T11:05:28.635Z,265.2
2023-01-11T11:08:15.888Z,313.7
2023-01-11T11:10:30.023Z,343.8
2023-01-11T11:12:29.832Z,360.4
2023-01-11T11:15:17.948Z,436.8
2023-01-11T11:17:52.155Z,550.2
2023-01-11T11:20:12.256Z,629.1
2023-01-11T11:22:18.194Z,794.2
2023-01-11T11:25:12.626Z,922.8
2023-01-11T11:27:53.023Z,838
2023-01-11T11:30:18.822Z,1003.8
2023-01-11T11:32:31.014Z,1181.1
2023-01-11T11:34:29.122Z,1219.2
2023-01-11T11:37:15.598Z,1101.1
2023-01-11T11:39:47.936Z,1053.4
2023-01-11T11:42:06.341Z,1035.8
2023-01-11T11:44:10.475Z,1124.1
2023-01-11T11:47:03.216Z,1210.8
2023-01-11T11:49:41.563Z,1176
2023-01-11T11:52:05.898Z,1047
2023-01-11T11:54:16.169Z,1228.4
2023-01-11T11:57:15.016Z,1358.7
2023-01-11T11:59:59.707Z,1448.9
2023-01-11T12:02:30.334Z,1427.2
2023-01-11T12:04:46.718Z,1195.5
2023-01-11T12:06:49.399Z,973.7
2023-01-11T12:09:39.979Z,761.9
2023-01-11T12:12:16.686Z,715.5
2023-01-11T12:14:39.545Z,616.8
2023-01-11T12:16:48.200Z,519.2
2023-01-11T12:19:45.248Z,443.5
2023-01-11T12:22:27.776Z,512.9
2023-01-11T12:24:56.558Z,418
2023-01-11T12:27:11.339Z,397.7
2023-01-11T12:29:11.955Z,381.6
2023-01-11T12:32:00.969Z,511.3
2023-01-11T12:34:36.017Z,463.3
2023-01-11T12:36:56.689Z,486.2
2023-01-11T12:39:03.523Z,442.2
2023-01-11T12:41:58.810Z,444.9
2023-01-11T12:44:39.715Z,453.7
2023-01-11T12:47:06.821Z,435
2023-01-11T12:49:19.730Z,456.4
2023-01-11T12:51:18.562Z,405.4
2023-01-11T12:54:05.933Z,491.8
2023-01-11T12:56:39.156Z,730.2
2023-01-11T12:58:58.250Z,696.3
2023-01-11T13:01:03.431Z,530.7
2023-01-11T13:03:56.807Z,586.4
2023-01-11T13:06:36.108Z,675.8
2023-01-11T13:09:01.264Z,579.2
2023-01-11T13:11:12.483Z,638
2023-01-11T13:13:09.217Z,681.6
2023-01-11T13:15:54.713Z,731.2
2023-01-11T13:18:26.294Z,832.6
2023-01-11T13:20:59.156Z,794.8
2023-01-11T13:22:47.015Z,664
2023-01-11T13:25:38.941Z,699.2
2023-01-11T13:28:20.180Z,756.8
2023-01-11T13:30:40.162Z,783.6
2023-01-11T13:32:49.689Z,749.4
2023-01-11T13:35:47.714Z,653.2
2023-01-11T13:38:32.975Z,605.9
2023-01-11T13:41:01.150Z,561.9
2023-01-11T13:43:16.884Z,625.6
2023-01-11T13:45:18.413Z,653.7
2023-01-11T13:48:08.225Z,667.5
2023-01-11T13:50:44.060Z,609.6
2023-01-11T13:53:05.726Z,614.4
2023-01-11T13:55:20.759Z,588.1
2023-01-11T13:58:09.497Z,561.4
2023-01-11T14:00:51.400Z,551.5
2023-01-11T14:03:19.314Z,544.1
2023-01-11T14:05:32.495Z,533.1
2023-01-11T14:07:32.244Z,521.9
2023-01-11T14:10:20.350Z,496.3
2023-01-11T14:12:54.268Z,479.8
2023-01-11T14:15:14.331Z,463.3
2023-01-11T14:17:20.238Z,448.9
2023-01-11T14:20:14.463Z,423.5
2023-01-11T14:22:54.750Z,392.9
2023-01-11T14:25:20.945Z,367.5
2023-01-11T14:27:33.028Z,358.7
2023-01-11T14:29:31.170Z,360.1
2023-01-11T14:32:17.529Z,342.8
2023-01-11T14:34:49.806Z,318.4
2023-01-11T14:37:07.820Z,293.6
2023-01-11T14:39:11.943Z,285.1
2023-01-11T14:42:04.521Z,279.6
2023-01-11T14:44:42.863Z,257.7
2023-01-11T14:47:07.344Z,239.6
2023-01-11T14:49:17.697Z,221.2
2023-01-11T14:52:16.281Z,210.8
2023-01-11T14:55:00.951Z,208.5
2023-01-11T14:57:31.089Z,213.4
2023-01-11T14:59:47.430Z,211.5
2023-01-11T15:01:49.972Z,205.3
2023-01-11T15:04:40.713Z,196.1
2023-01-11T15:07:17.282Z,184.9
2023-01-11T15:09:39.835Z,174.1
2023-01-11T15:11:48.372Z,154.2
2023-01-11T15:14:45.241Z,128.12
2023-01-11T15:17:28.009Z,107.44
2023-01-11T15:19:56.914Z,97.6
2023-01-11T15:22:11.625Z,93.44
2023-01-11T15:24:12.101Z,92.44
2023-01-11T15:27:01.275Z,87.16
2023-01-11T15:29:36.111Z,79.44
2023-01-11T15:31:56.941Z,73.18
2023-01-11T15:34:03.822Z,69.88
2023-01-11T15:36:58.982Z,56.62
2023-01-11T15:39:39.952Z,47.16
2023-01-11T15:42:06.822Z,39.32
2023-01-11T15:44:19.748Z,33.94
2023-01-11T15:46:18.612Z,30.2
2023-01-11T15:49:05.329Z,26.42
2023-01-11T15:51:38.569Z,23.48
2023-01-11T15:53:57.643Z,18.36
2023-01-11T15:56:02.556Z,12.85
2023-01-11T15:58:56.051Z,8.07
2023-01-11T16:01:35.349Z,5.31
2023-01-11T16:04:00.842Z,3.83
2023-01-11T16:06:11.703Z,2.97
2023-01-11T16:08:08.830Z,2.29
2023-01-11T16:10:54.250Z,1.58
2023-01-11T16:13:25.546Z,1.18
2023-01-11T16:15:42.985Z,0.89
2023-01-11T16:17:46.187Z,0.69
2023-01-11T16:20:37.740Z,0.51
2023-01-11T16:23:15.378Z,0.41
2023-01-11T16:27:49.058Z,0.37
2023-01-11T16:30:46.085Z,0.31
2023-01-11T16:33:29.927Z,0.27
2023-01-11T16:38:14.771Z,0.24
2023-01-11T16:40:15.912Z,0.23
2023-01-11T16:43:05.721Z,0.21
2023-01-11T16:45:41.402Z,0.2
2023-01-11T16:48:03.158Z,0.21
2023-01-11T16:53:06.725Z,0.19
2023-01-11T16:55:48.787Z,0.12
2023-01-11T16:58:16.637Z,0.13
2023-01-11T17:00:30.368Z,0.12
2023-01-11T17:02:30.260Z,0.11
2023-01-11T17:07:52.412Z,0.08
2023-01-11T17:15:12.572Z,0.06
2023-01-11T17:20:18.826Z,0.08
2023-01-11T17:22:30.858Z,0.09
2023-01-11T17:27:15.226Z,0.07
2023-01-11T17:29:47.507Z,0.04
2023-01-11T17:32:05.352Z,0.06
2023-01-11T17:34:09.504Z,0.04
2023-01-11T17:37:02.060Z,0.03
2023-01-11T17:59:38.327Z,0.05
2023-01-11T18:04:37.602Z,0.03
2023-01-11T18:09:43.161Z,0.04
2023-01-11T18:12:26.008Z,0.05
2023-01-11T18:14:54.606Z,0.04
2023-01-11T18:17:09.364Z,0.02
2023-01-11T18:29:00.884Z,0.03
2023-01-11T18:31:56.113Z,0.04
2023-01-11T18:34:37.207Z,0.05
2023-01-11T18:37:04.147Z,0.02
2023-01-11T18:39:16.977Z,0.03
2023-01-11T18:41:15.849Z,0.04
2023-01-11T18:51:00.497Z,0.03
2023-01-11T18:53:53.863Z,0.02
2023-01-11T18:56:33.280Z,0.03
2023-01-11T19:03:06.737Z,0.04
2023-01-11T19:05:52.287Z,0.03
2023-01-11T19:10:40.895Z,0.04
2023-01-11T19:15:35.915Z,0.02
2023-01-11T19:22:45.884Z,0.03
2023-01-11T19:25:43.676Z,0.02
2023-01-11T19:28:27.512Z,0.03
2023-01-11T19:30:57.342Z,0.02
2023-01-11T19:35:14.340Z,0.03
2023-01-11T19:40:40.018Z,0.02
2023-01-11T19:53:15.054Z,0.03
2023-01-11T19:55:28.869Z,0.02
2023-01-11T20:17:29.343Z,0.03
2023-01-11T20:19:27.253Z,0.02
2023-01-11T20:24:45.917Z,0.03
2023-01-11T20:29:08.233Z,0.02
2023-01-11T20:37:03.708Z,0.03
2023-01-11T20:42:12.893Z,0.02
2023-01-11T20:47:27.977Z,0.04
2023-01-11T20:49:44.498Z,0.07
2023-01-11T20:51:46.829Z,0.04
2023-01-11T20:54:37.527Z,0.03
2023-01-11T20:57:14.311Z,0.02
2023-01-11T21:39:02.481Z,0.01
2023-01-11T21:41:16.475Z,0.02
2023-01-11T21:46:04.623Z,0.01
2023-01-11T21:55:59.199Z,0.02
2023-01-11T23:37:29.043Z,0.03
2023-01-11T23:42:05.682Z,0.02
2023-01-11T23:51:37.539Z,0.03
2023-01-11T23:59:10.212Z,0.02
